Toyomasa Maru — JJ3927 — position and weather

sailwx.info

Track history (hours):
 
Tides and Currents Weather Stations Pressure Air Temp Water Temp Dewpoint Dewpoint Depression Visibility Wind Speed Wind Dir Waves Ship Positions

Toyomasa Maru

Last reported at 2016-Dec-05 08:33 UTC. Time now 2016-Dec-08 09:59 UTC.
Position N 35°22' E 139°42'.

Length 101 m; draft 6.6 m.

Type: Tanker. MMSI: 431300401.

Date/timePositionNaut miles runAvg speedWind from/ knotsBaromVisibWave heightAir tempDewpointWater temp
2016-Dec-05 08:33N 35°22' E 139°42'1111.5
2016-Dec-05 07:33N 35°30' E 139°52'7 0.9
2016-Dec-04 23:05N 35°28' E 140°01'3 6.3
2016-Dec-04 22:33N 35°30' E 139°58'0 0.1
2016-Dec-04 21:26N 35°30' E 139°57'0 0.0
2016-Dec-04 20:32N 35°30' E 139°57'0 0.0
2016-Dec-04 16:14N 35°30' E 139°57'4 6.0
2016-Dec-04 15:33N 35°30' E 139°52'5 4.4
2016-Dec-04 14:28N 35°31' E 139°46'0 0.0
2016-Dec-04 12:28N 35°31' E 139°46'1 0.2
2016-Dec-04 06:33N 35°30' E 139°45'6 5.6
2016-Dec-04 05:31N 35°24' E 139°45'0 0.1
2016-Dec-04 04:31N 35°24' E 139°45'0 0.0
2016-Dec-04 03:31N 35°24' E 139°45'0 0.1
2016-Dec-04 02:31N 35°24' E 139°45'0 0.0
2016-Dec-04 01:28N 35°24' E 139°45'0 0.0
2016-Dec-04 00:30N 35°24' E 139°45'8 8.2
2016-Dec-03 23:33N 35°17' E 139°46'1212.0
2016-Dec-03 22:33N 35°05' E 139°46'  
2016-Dec-01 12:04N 34°34' E 134°49'714.6
2016-Dec-01 11:33N 34°37' E 134°57'9 9.3
2016-Dec-01 10:32N 34°39' E 135°08'0 0.0
2016-Dec-01 09:32N 34°39' E 135°08'0 0.0
2016-Dec-01 08:20N 34°39' E 135°08'0 0.0
2016-Dec-01 07:29N 34°39' E 135°08'0 0.0
2016-Dec-01 06:17N 34°39' E 135°08'0 0.1
2016-Dec-01 05:33N 34°38' E 135°08'10 9.8
2016-Dec-01 04:33N 34°29' E 135°04'1212.1
2016-Dec-01 03:33N 34°18' E 134°59'1212.4
2016-Dec-01 02:33N 34°05' E 134°59'239 6.6
2016-Nov-29 14:18N 35°04' E 139°40'1114.1
2016-Nov-29 13:33N 35°13' E 139°46'1212.1
2016-Nov-29 12:33N 35°25' E 139°44'1413.5
2016-Nov-29 11:30N 35°32' E 139°59'5 0.7
2016-Nov-29 04:32N 35°29' E 139°55'0 0.0
2016-Nov-29 03:29N 35°29' E 139°55'0 0.0
2016-Nov-28 18:32N 35°29' E 139°55'0 0.0
2016-Nov-28 17:26N 35°29' E 139°55'0 0.0
2016-Nov-28 16:23N 35°29' E 139°55'0 0.1
2016-Nov-28 15:29N 35°29' E 139°55'0 0.0
2016-Nov-28 13:17N 35°29' E 139°55'0 0.0
2016-Nov-28 10:29N 35°29' E 139°55'0 0.0
2016-Nov-28 09:32N 35°29' E 139°55'0 0.0
2016-Nov-28 08:32N 35°29' E 139°55'0 0.0
2016-Nov-28 05:23N 35°29' E 139°55'0 0.0
2016-Nov-28 03:32N 35°29' E 139°55'0 0.1
2016-Nov-28 02:05N 35°29' E 139°55'0 0.0
2016-Nov-28 00:26N 35°29' E 139°55'0 0.1
2016-Nov-27 23:32N 35°29' E 139°55'0 0.0
2016-Nov-27 19:17N 35°29' E 139°55'0 0.0
2016-Nov-27 18:32N 35°29' E 139°55'0 0.0
2016-Nov-27 17:23N 35°29' E 139°55'0 0.1
2016-Nov-27 16:32N 35°29' E 139°55'0 0.0
2016-Nov-27 15:29N 35°29' E 139°55'0 0.0
2016-Nov-27 10:32N 35°29' E 139°55'0 0.0
2016-Nov-27 07:32N 35°29' E 139°55'1010.2
2016-Nov-27 06:34N 35°23' E 139°46'1211.6
2016-Nov-27 05:34N 35°11' E 139°47'24010.0
2016-Nov-26 05:33N 34°08' E 135°06'1 0.7
2016-Nov-26 03:28N 34°07' E 135°07'0 0.0
2016-Nov-26 02:28N 34°07' E 135°07'0 0.0
2016-Nov-26 01:28N 34°07' E 135°07'0 0.0
2016-Nov-26 00:28N 34°07' E 135°07'0 0.0
2016-Nov-25 23:31N 34°07' E 135°07'0 0.0
2016-Nov-25 22:31N 34°07' E 135°07'1 0.8
2016-Nov-25 21:32N 34°08' E 135°07'0 0.1
2016-Nov-25 20:32N 34°08' E 135°07'0 0.0
2016-Nov-25 19:33N 34°08' E 135°07'0 0.0
2016-Nov-25 18:32N 34°08' E 135°07'0 0.0
2016-Nov-25 17:32N 34°08' E 135°07'0 0.0
2016-Nov-25 16:32N 34°08' E 135°07'0 0.0
2016-Nov-25 15:32N 34°08' E 135°07'7 6.9
2016-Nov-25 14:33N 34°13' E 135°01'1413.7
2016-Nov-25 13:32N 34°27' E 135°02'10 9.3
2016-Nov-25 12:27N 34°36' E 134°56'  
Track history (hours):
 
Tides and Currents Weather Stations Pressure Air Temp Water Temp Dewpoint Dewpoint Depression Visibility Wind Speed Wind Dir Waves Ship Positions

Toyomasa Maru

Last reported at 2016-Dec-05 08:33 UTC. Time now 2016-Dec-08 09:59 UTC.
Position N 35°22' E 139°42'.

Length 101 m; draft 6.6 m.

Type: Tanker. MMSI: 431300401.

Date/timePositionNaut miles runAvg speedWind from/ knotsBaromVisibWave heightAir tempDewpointWater temp
2016-Dec-05 08:33N 35°22' E 139°42'1111.5
2016-Dec-05 07:33N 35°30' E 139°52'7 0.9
2016-Dec-04 23:05N 35°28' E 140°01'3 6.3
2016-Dec-04 22:33N 35°30' E 139°58'0 0.1
2016-Dec-04 21:26N 35°30' E 139°57'0 0.0
2016-Dec-04 20:32N 35°30' E 139°57'0 0.0
2016-Dec-04 16:14N 35°30' E 139°57'4 6.0
2016-Dec-04 15:33N 35°30' E 139°52'5 4.4
2016-Dec-04 14:28N 35°31' E 139°46'0 0.0
2016-Dec-04 12:28N 35°31' E 139°46'1 0.2
2016-Dec-04 06:33N 35°30' E 139°45'6 5.6
2016-Dec-04 05:31N 35°24' E 139°45'0 0.1
2016-Dec-04 04:31N 35°24' E 139°45'0 0.0
2016-Dec-04 03:31N 35°24' E 139°45'0 0.1
2016-Dec-04 02:31N 35°24' E 139°45'0 0.0
2016-Dec-04 01:28N 35°24' E 139°45'0 0.0
2016-Dec-04 00:30N 35°24' E 139°45'8 8.2
2016-Dec-03 23:33N 35°17' E 139°46'1212.0
2016-Dec-03 22:33N 35°05' E 139°46'  
2016-Dec-01 12:04N 34°34' E 134°49'714.6
2016-Dec-01 11:33N 34°37' E 134°57'9 9.3
2016-Dec-01 10:32N 34°39' E 135°08'0 0.0
2016-Dec-01 09:32N 34°39' E 135°08'0 0.0
2016-Dec-01 08:20N 34°39' E 135°08'0 0.0
2016-Dec-01 07:29N 34°39' E 135°08'0 0.0
2016-Dec-01 06:17N 34°39' E 135°08'0 0.1
2016-Dec-01 05:33N 34°38' E 135°08'10 9.8
2016-Dec-01 04:33N 34°29' E 135°04'1212.1
2016-Dec-01 03:33N 34°18' E 134°59'1212.4
2016-Dec-01 02:33N 34°05' E 134°59'239 6.6
2016-Nov-29 14:18N 35°04' E 139°40'1114.1
2016-Nov-29 13:33N 35°13' E 139°46'1212.1
2016-Nov-29 12:33N 35°25' E 139°44'1413.5
2016-Nov-29 11:30N 35°32' E 139°59'5 0.7
2016-Nov-29 04:32N 35°29' E 139°55'0 0.0
2016-Nov-29 03:29N 35°29' E 139°55'0 0.0
2016-Nov-28 18:32N 35°29' E 139°55'0 0.0
2016-Nov-28 17:26N 35°29' E 139°55'0 0.0
2016-Nov-28 16:23N 35°29' E 139°55'0 0.1
2016-Nov-28 15:29N 35°29' E 139°55'0 0.0
2016-Nov-28 13:17N 35°29' E 139°55'0 0.0
2016-Nov-28 10:29N 35°29' E 139°55'0 0.0
2016-Nov-28 09:32N 35°29' E 139°55'0 0.0
2016-Nov-28 08:32N 35°29' E 139°55'0 0.0
2016-Nov-28 05:23N 35°29' E 139°55'0 0.0
2016-Nov-28 03:32N 35°29' E 139°55'0 0.1
2016-Nov-28 02:05N 35°29' E 139°55'0 0.0
2016-Nov-28 00:26N 35°29' E 139°55'0 0.1
2016-Nov-27 23:32N 35°29' E 139°55'0 0.0
2016-Nov-27 19:17N 35°29' E 139°55'0 0.0
2016-Nov-27 18:32N 35°29' E 139°55'0 0.0
2016-Nov-27 17:23N 35°29' E 139°55'0 0.1
2016-Nov-27 16:32N 35°29' E 139°55'0 0.0
2016-Nov-27 15:29N 35°29' E 139°55'0 0.0
2016-Nov-27 10:32N 35°29' E 139°55'0 0.0
2016-Nov-27 07:32N 35°29' E 139°55'1010.2
2016-Nov-27 06:34N 35°23' E 139°46'1211.6
2016-Nov-27 05:34N 35°11' E 139°47'24010.0
2016-Nov-26 05:33N 34°08' E 135°06'1 0.7
2016-Nov-26 03:28N 34°07' E 135°07'0 0.0
2016-Nov-26 02:28N 34°07' E 135°07'0 0.0
2016-Nov-26 01:28N 34°07' E 135°07'0 0.0
2016-Nov-26 00:28N 34°07' E 135°07'0 0.0
2016-Nov-25 23:31N 34°07' E 135°07'0 0.0
2016-Nov-25 22:31N 34°07' E 135°07'1 0.8
2016-Nov-25 21:32N 34°08' E 135°07'0 0.1
2016-Nov-25 20:32N 34°08' E 135°07'0 0.0
2016-Nov-25 19:33N 34°08' E 135°07'0 0.0
2016-Nov-25 18:32N 34°08' E 135°07'0 0.0
2016-Nov-25 17:32N 34°08' E 135°07'0 0.0
2016-Nov-25 16:32N 34°08' E 135°07'0 0.0
2016-Nov-25 15:32N 34°08' E 135°07'7 6.9
2016-Nov-25 14:33N 34°13' E 135°01'1413.7
2016-Nov-25 13:32N 34°27' E 135°02'10 9.3
2016-Nov-25 12:27N 34°36' E 134°56'  

Dump ship's entire track history